Time;durP1;ratioP1;P1;durP2;ratioP2;P2;SDS_P1;SDS_P2;PMS_P1;PMS_P2;Temp;Humidity;BMP_temperature;BMP_pressure;BME280_temperature;BME280_humidity;BME280_pressure;Samples;Min_cycle;Max_cycle;Signal;HPM_P1;HPM_P2
2024/03/30 00:00:49;;;;;;;12.00;6.27;;;8.20;99.90;;;;;;5010989;28;20512;-70
2024/03/30 00:03:16;;;;;;;11.97;6.80;;;8.20;99.90;;;;;;5013957;28;20836;-70
2024/03/30 00:05:42;;;;;;;12.40;6.37;;;8.50;99.90;;;;;;5008584;28;20548;-70
2024/03/30 00:08:10;;;;;;;11.87;6.47;;;8.50;99.90;;;;;;5010958;28;20460;-69
2024/03/30 00:10:36;;;;;;;12.13;6.57;;;8.50;99.90;;;;;;5013863;28;20480;-70
2024/03/30 00:13:04;;;;;;;12.83;6.07;;;8.30;99.90;;;;;;5015614;28;20453;-70
2024/03/30 00:15:31;;;;;;;12.33;6.97;;;8.30;99.90;;;;;;5020410;28;20472;-70
2024/03/30 00:17:59;;;;;;;12.77;7.17;;;8.10;99.90;;;;;;5021038;28;20957;-70
2024/03/30 00:20:27;;;;;;;11.60;6.70;;;8.30;99.90;;;;;;5017066;28;20467;-70
2024/03/30 00:22:54;;;;;;;12.10;6.07;;;8.30;99.90;;;;;;5012753;28;20448;-70
2024/03/30 00:25:20;;;;;;;12.33;7.23;;;8.10;99.90;;;;;;5011795;28;20484;-70
2024/03/30 00:27:47;;;;;;;12.27;6.30;;;8.10;99.90;;;;;;5017220;28;20468;-70
2024/03/30 00:30:15;;;;;;;14.53;6.57;;;8.00;99.90;;;;;;5016561;28;20452;-70
2024/03/30 00:32:44;;;;;;;16.37;6.87;;;8.00;99.90;;;;;;5020663;28;20455;-70
2024/03/30 00:35:11;;;;;;;13.13;6.20;;;7.90;99.90;;;;;;5016003;28;20476;-70
2024/03/30 00:37:38;;;;;;;12.27;6.90;;;7.70;99.90;;;;;;5011222;28;20465;-70
2024/03/30 00:40:06;;;;;;;12.10;6.27;;;7.60;99.90;;;;;;5009972;28;20461;-69
2024/03/30 00:42:34;;;;;;;12.10;6.80;;;7.60;99.90;;;;;;5007811;28;20981;-71
2024/03/30 00:45:00;;;;;;;12.90;7.40;;;7.60;99.90;;;;;;5012734;28;20989;-69
2024/03/30 00:47:27;;;;;;;12.50;6.50;;;7.60;99.90;;;;;;5012666;28;20560;-70
2024/03/30 00:49:54;;;;;;;12.10;7.20;;;7.60;99.90;;;;;;5011131;28;20917;-70
2024/03/30 00:52:21;;;;;;;13.00;7.30;;;7.70;99.90;;;;;;5005302;28;20550;-69
2024/03/30 00:54:47;;;;;;;15.40;8.03;;;7.70;99.90;;;;;;5009988;28;20554;-71
2024/03/30 00:57:14;;;;;;;13.90;7.33;;;7.70;99.90;;;;;;5007085;28;20586;-71
2024/03/30 00:59:41;;;;;;;11.13;6.37;;;7.90;99.90;;;;;;5007682;28;20831;-70
2024/03/30 01:02:08;;;;;;;14.07;7.43;;;7.90;99.90;;;;;;5013739;28;21152;-69
2024/03/30 01:04:34;;;;;;;11.30;6.20;;;7.90;99.90;;;;;;5015250;28;20554;-70
2024/03/30 01:07:03;;;;;;;11.37;6.67;;;8.00;99.90;;;;;;5018549;28;20568;-70
2024/03/30 01:09:29;;;;;;;14.30;7.40;;;7.90;99.90;;;;;;5012656;28;20880;-70
2024/03/30 01:11:57;;;;;;;11.43;6.57;;;7.90;99.90;;;;;;5009956;28;20507;-69
2024/03/30 01:14:24;;;;;;;12.90;7.37;;;7.80;99.90;;;;;;5020904;28;21289;-72
2024/03/30 01:16:52;;;;;;;12.13;6.73;;;7.90;99.90;;;;;;5020219;28;20470;-69
2024/03/30 01:19:18;;;;;;;13.07;6.77;;;7.80;99.90;;;;;;5027511;28;20482;-69
2024/03/30 01:21:48;;;;;;;12.23;6.43;;;7.80;99.90;;;;;;5018862;28;20457;-69
2024/03/30 01:24:17;;;;;;;13.00;6.77;;;7.80;99.90;;;;;;5026874;28;20466;-69
2024/03/30 01:26:51;;;;;;;15.00;7.27;;;7.70;99.90;;;;;;5025086;28;20457;-69
2024/03/30 01:29:23;;;;;;;13.40;6.27;;;7.70;99.90;;;;;;5026798;28;20457;-70
2024/03/30 01:31:50;;;;;;;13.80;7.33;;;7.70;99.90;;;;;;5026583;28;20484;-70
2024/03/30 01:34:17;;;;;;;13.10;6.90;;;7.70;99.90;;;;;;5026394;28;20474;-70
2024/03/30 01:36:44;;;;;;;14.80;7.20;;;7.80;99.90;;;;;;5027092;28;20463;-70
2024/03/30 01:39:10;;;;;;;13.20;7.33;;;8.00;99.90;;;;;;5024940;28;20943;-69
2024/03/30 01:41:38;;;;;;;15.23;7.43;;;8.10;99.90;;;;;;5022012;28;20475;-70
2024/03/30 01:44:05;;;;;;;12.90;7.00;;;8.10;99.90;;;;;;5025532;28;20478;-70
2024/03/30 01:46:33;;;;;;;12.47;6.50;;;8.00;99.90;;;;;;5026874;28;20443;-69
2024/03/30 01:49:01;;;;;;;11.03;6.27;;;7.90;99.90;;;;;;5022348;28;21262;-70
2024/03/30 01:51:29;;;;;;;12.70;6.83;;;7.80;99.90;;;;;;5021002;28;20475;-69
2024/03/30 01:53:55;;;;;;;11.40;6.37;;;7.70;99.90;;;;;;5025056;28;21023;-70
2024/03/30 01:56:22;;;;;;;12.17;6.90;;;7.50;99.90;;;;;;5026812;28;20469;-70
2024/03/30 01:58:50;;;;;;;12.30;6.70;;;7.40;99.90;;;;;;5028576;28;20454;-69
2024/03/30 02:01:18;;;;;;;14.17;6.30;;;7.40;99.90;;;;;;5027744;28;20755;-70
2024/03/30 02:03:44;;;;;;;12.17;6.53;;;7.40;99.90;;;;;;5027556;28;20475;-71
2024/03/30 02:06:13;;;;;;;11.73;6.30;;;7.30;99.90;;;;;;5021147;28;20469;-70
2024/03/30 02:08:40;;;;;;;14.17;7.30;;;7.20;99.90;;;;;;5026329;28;20462;-70
2024/03/30 02:11:08;;;;;;;13.13;7.00;;;7.20;99.90;;;;;;5025920;28;20481;-69
2024/03/30 02:13:35;;;;;;;13.73;7.10;;;7.20;99.90;;;;;;5026003;28;20457;-70
2024/03/30 02:16:04;;;;;;;12.70;6.97;;;7.20;99.90;;;;;;5022601;28;20963;-70
2024/03/30 02:18:30;;;;;;;13.83;7.20;;;7.30;99.90;;;;;;5022844;28;20540;-69
2024/03/30 02:20:57;;;;;;;12.83;7.43;;;7.30;99.90;;;;;;5026275;28;20465;-70
2024/03/30 02:23:24;;;;;;;10.80;6.70;;;7.30;99.90;;;;;;5021269;28;20483;-69
2024/03/30 02:25:51;;;;;;;13.00;7.40;;;7.30;99.90;;;;;;5025376;28;20479;-70
2024/03/30 02:28:17;;;;;;;11.40;6.80;;;7.30;99.90;;;;;;5024875;28;20820;-69
2024/03/30 02:30:45;;;;;;;16.37;8.30;;;7.20;99.90;;;;;;5026098;28;20477;-69
2024/03/30 02:33:11;;;;;;;10.73;6.03;;;7.30;99.90;;;;;;5024868;28;20457;-71
2024/03/30 02:35:38;;;;;;;12.50;6.93;;;7.30;99.90;;;;;;5024224;28;20506;-70
2024/03/30 02:38:05;;;;;;;12.50;7.23;;;7.60;99.90;;;;;;5026586;28;20457;-70
2024/03/30 02:40:33;;;;;;;13.80;7.03;;;7.60;99.90;;;;;;5027496;28;20835;-71
2024/03/30 02:42:59;;;;;;;12.50;6.80;;;7.50;99.90;;;;;;5026854;28;20445;-70
2024/03/30 02:45:26;;;;;;;12.17;6.80;;;7.50;99.90;;;;;;5026495;28;20480;-71
2024/03/30 02:47:52;;;;;;;11.50;6.13;;;7.50;99.90;;;;;;5027111;28;20465;-72
2024/03/30 02:50:19;;;;;;;11.50;6.20;;;7.60;99.90;;;;;;5026395;28;20933;-71
2024/03/30 02:52:45;;;;;;;12.63;6.20;;;7.50;99.90;;;;;;5018378;28;20497;-71
2024/03/30 02:55:12;;;;;;;12.50;7.53;;;7.60;99.90;;;;;;5025972;28;20474;-70
2024/03/30 02:57:39;;;;;;;14.00;7.10;;;7.60;99.90;;;;;;5026772;28;20482;-70
2024/03/30 03:00:09;;;;;;;11.90;6.13;;;7.50;99.90;;;;;;5026287;28;21066;-70
2024/03/30 03:02:35;;;;;;;13.70;6.90;;;7.50;99.90;;;;;;5026012;28;20454;-71
2024/03/30 03:05:03;;;;;;;13.20;7.37;;;7.50;99.90;;;;;;5025711;28;20530;-70
2024/03/30 03:07:29;;;;;;;12.10;7.00;;;7.40;99.90;;;;;;5017500;28;20985;-71
2024/03/30 03:09:56;;;;;;;15.33;7.30;;;7.40;99.90;;;;;;5026796;28;20562;-70
2024/03/30 03:12:22;;;;;;;17.03;7.10;;;7.50;99.90;;;;;;5021239;28;20863;-71
2024/03/30 03:14:50;;;;;;;16.93;7.50;;;7.50;99.90;;;;;;5025206;28;20494;-70
2024/03/30 03:17:16;;;;;;;21.60;7.57;;;7.50;99.90;;;;;;5016031;28;20462;-71
2024/03/30 03:19:43;;;;;;;17.70;6.60;;;7.60;99.90;;;;;;5019135;28;20480;-71
2024/03/30 03:22:09;;;;;;;17.27;5.53;;;7.60;99.90;;;;;;5022660;28;20447;-70
2024/03/30 03:24:37;;;;;;;30.50;7.60;;;7.70;99.90;;;;;;5025758;28;20477;-70
2024/03/30 03:27:04;;;;;;;22.37;7.00;;;8.00;99.90;;;;;;5025831;28;21091;-71
2024/03/30 03:29:31;;;;;;;23.53;6.10;;;8.00;99.90;;;;;;5024056;28;21074;-71
2024/03/30 03:31:59;;;;;;;23.43;8.37;;;8.00;99.90;;;;;;5018890;28;20486;-71
2024/03/30 03:34:25;;;;;;;26.40;7.37;;;8.00;99.90;;;;;;5023474;28;20953;-71
2024/03/30 03:36:51;;;;;;;28.53;6.70;;;8.00;99.90;;;;;;5025350;28;20851;-71
2024/03/30 03:39:19;;;;;;;18.23;6.53;;;8.00;99.90;;;;;;5025006;28;20484;-69
2024/03/30 03:41:45;;;;;;;18.93;6.70;;;8.00;99.90;;;;;;5024732;28;20454;-70
2024/03/30 03:44:12;;;;;;;16.30;7.50;;;7.90;99.90;;;;;;5024279;28;20466;-71
2024/03/30 03:46:38;;;;;;;24.83;7.43;;;7.80;99.90;;;;;;5025174;28;20466;-72
2024/03/30 03:49:07;;;;;;;17.90;5.90;;;7.90;99.90;;;;;;5025044;28;20523;-71
2024/03/30 03:51:33;;;;;;;24.13;6.37;;;8.00;99.90;;;;;;5024119;28;21020;-70
2024/03/30 03:54:00;;;;;;;16.73;6.60;;;8.00;99.90;;;;;;5024486;28;20480;-71
2024/03/30 03:56:26;;;;;;;13.53;6.40;;;8.00;99.90;;;;;;5024825;28;20546;-70
2024/03/30 03:58:53;;;;;;;12.70;5.63;;;7.90;99.90;;;;;;5023989;28;20558;-71
2024/03/30 04:01:19;;;;;;;13.50;6.17;;;7.90;99.90;;;;;;5025314;28;20452;-71
2024/03/30 04:03:47;;;;;;;22.20;6.60;;;7.90;99.90;;;;;;5025009;28;20474;-72
2024/03/30 04:06:14;;;;;;;19.23;5.87;;;7.80;99.90;;;;;;5024617;28;20456;-71
2024/03/30 04:08:41;;;;;;;16.03;5.97;;;7.80;99.90;;;;;;5020297;28;20470;-71
2024/03/30 04:11:07;;;;;;;23.00;6.43;;;7.80;99.90;;;;;;5021929;28;20463;-70
2024/03/30 04:13:34;;;;;;;13.23;5.90;;;7.80;99.90;;;;;;5024544;28;20545;-71
2024/03/30 04:16:02;;;;;;;21.60;6.40;;;7.80;99.90;;;;;;5024132;28;20479;-70
2024/03/30 04:18:29;;;;;;;20.37;7.10;;;7.70;99.90;;;;;;5025149;28;20451;-71
2024/03/30 04:20:56;;;;;;;26.23;5.90;;;7.90;99.90;;;;;;5025606;28;20448;-71
2024/03/30 04:23:24;;;;;;;23.70;5.20;;;8.10;99.90;;;;;;5024488;28;20448;-70
2024/03/30 04:26:00;;;;;;;27.93;6.83;;;8.20;99.90;;;;;;5025029;28;20467;-69
2024/03/30 04:28:27;;;;;;;23.17;5.40;;;8.30;99.90;;;;;;5024869;28;20478;-69
2024/03/30 04:30:54;;;;;;;23.07;6.23;;;8.50;99.90;;;;;;5025253;28;20460;-69
2024/03/30 04:33:21;;;;;;;22.07;7.87;;;8.60;99.90;;;;;;5018887;28;20497;-69
2024/03/30 04:35:54;;;;;;;21.80;5.43;;;8.60;99.90;;;;;;5024852;28;20453;-70
2024/03/30 04:38:21;;;;;;;18.93;5.37;;;8.70;99.90;;;;;;5024957;28;20471;-69
2024/03/30 04:40:58;;;;;;;21.00;7.53;;;8.70;99.90;;;;;;5025319;28;20490;-70
2024/03/30 04:43:25;;;;;;;22.37;6.50;;;8.60;99.90;;;;;;5024307;28;20449;-69
2024/03/30 04:45:51;;;;;;;24.43;5.90;;;8.40;99.90;;;;;;5024462;28;20895;-70
2024/03/30 04:48:19;;;;;;;24.67;6.33;;;8.40;99.90;;;;;;5025067;28;20460;-69
2024/03/30 04:50:45;;;;;;;26.60;5.27;;;8.40;99.90;;;;;;5024210;28;20973;-70
2024/03/30 04:53:16;;;;;;;27.13;6.07;;;8.70;99.90;;;;;;5026895;28;20923;-69
2024/03/30 04:55:49;;;;;;;21.53;5.40;;;8.70;99.90;;;;;;5028637;28;20478;-69
2024/03/30 04:58:19;;;;;;;16.27;6.30;;;8.60;99.90;;;;;;5020140;28;20533;-69
2024/03/30 05:00:45;;;;;;;10.40;5.37;;;8.50;99.90;;;;;;5026826;28;20507;-69
2024/03/30 05:03:12;;;;;;;13.30;5.43;;;8.20;99.90;;;;;;5025254;28;20480;-69
2024/03/30 05:05:38;;;;;;;12.43;6.10;;;8.00;99.90;;;;;;5028889;28;20475;-69
2024/03/30 05:08:06;;;;;;;12.10;5.03;;;7.70;99.90;;;;;;5029409;28;20495;-68
2024/03/30 05:10:32;;;;;;;13.20;5.07;;;7.50;99.90;;;;;;5028654;28;20471;-70
2024/03/30 05:12:59;;;;;;;10.87;5.07;;;7.40;99.90;;;;;;5022580;28;20594;-70
2024/03/30 05:15:26;;;;;;;20.57;6.30;;;7.40;99.90;;;;;;5027680;28;20828;-69
2024/03/30 05:17:53;;;;;;;16.00;5.90;;;7.50;99.90;;;;;;5028377;28;20478;-70
2024/03/30 05:23:05;;;;;;;14.63;5.63;;;7.80;99.90;;;;;;5023536;28;20542;-70
2024/03/30 05:25:31;;;;;;;17.90;5.70;;;7.70;99.90;;;;;;5027484;28;20480;-70
2024/03/30 05:27:58;;;;;;;21.47;6.67;;;7.80;99.90;;;;;;5023381;28;21097;-69
2024/03/30 05:30:25;;;;;;;11.10;4.10;;;7.80;99.90;;;;;;5028355;28;20476;-70
2024/03/30 05:32:52;;;;;;;18.30;6.07;;;7.90;99.90;;;;;;5028427;28;20492;-70
2024/03/30 05:35:20;;;;;;;18.87;5.70;;;7.90;99.90;;;;;;5027274;28;20861;-70
2024/03/30 05:37:46;;;;;;;19.80;5.90;;;8.00;99.90;;;;;;5027388;28;20520;-69
2024/03/30 05:40:13;;;;;;;16.20;5.00;;;8.10;99.90;;;;;;5019245;28;20467;-70
2024/03/30 05:42:39;;;;;;;20.43;5.70;;;8.10;99.90;;;;;;5007878;28;20471;-70
2024/03/30 05:45:06;;;;;;;15.40;4.60;;;8.10;99.90;;;;;;5019107;28;20483;-70
2024/03/30 05:47:32;;;;;;;18.27;5.10;;;8.30;99.90;;;;;;5008386;28;20471;-70
2024/03/30 05:50:01;;;;;;;21.73;6.27;;;8.20;99.90;;;;;;5008204;28;21241;-70
2024/03/30 05:52:27;;;;;;;17.43;8.20;;;8.30;99.90;;;;;;5008867;28;20483;-69
2024/03/30 05:54:54;;;;;;;14.27;6.13;;;8.20;99.90;;;;;;5014911;28;20997;-69
2024/03/30 05:57:20;;;;;;;16.40;6.87;;;8.20;99.90;;;;;;5007940;28;20473;-70
2024/03/30 05:59:47;;;;;;;20.07;6.47;;;8.20;99.90;;;;;;5007838;28;20465;-70
2024/03/30 06:02:13;;;;;;;16.07;5.47;;;8.40;99.90;;;;;;5015289;28;20457;-70
2024/03/30 06:04:40;;;;;;;23.10;6.27;;;8.80;99.90;;;;;;5007755;28;20901;-69
2024/03/30 06:07:08;;;;;;;18.00;5.10;;;9.10;99.90;;;;;;5009229;28;20476;-69
2024/03/30 06:09:36;;;;;;;17.47;5.57;;;9.10;99.90;;;;;;5025613;28;20471;-69
2024/03/30 06:12:03;;;;;;;32.07;6.00;;;9.40;99.90;;;;;;5027576;28;20480;-69
2024/03/30 06:14:31;;;;;;;17.10;4.63;;;9.70;99.90;;;;;;5027707;28;20720;-69
2024/03/30 06:16:57;;;;;;;21.43;5.80;;;9.80;99.90;;;;;;5028485;28;20472;-69
2024/03/30 06:19:24;;;;;;;27.67;6.23;;;9.90;99.90;;;;;;5028364;28;21315;-69
2024/03/30 06:21:50;;;;;;;22.00;5.57;;;10.10;99.90;;;;;;5028112;28;20469;-69
2024/03/30 06:24:19;;;;;;;19.20;5.20;;;10.50;99.90;;;;;;5027709;28;21108;-69
2024/03/30 06:26:45;;;;;;;22.90;5.80;;;10.70;99.90;;;;;;5022291;28;20846;-69
2024/03/30 06:29:12;;;;;;;21.07;5.40;;;11.00;99.90;;;;;;5027138;28;20474;-69
2024/03/30 06:31:38;;;;;;;16.80;4.70;;;11.10;99.90;;;;;;5026748;28;20465;-68
2024/03/30 06:34:05;;;;;;;19.80;5.67;;;11.40;99.90;;;;;;5026340;28;21004;-68
2024/03/30 06:36:32;;;;;;;20.87;5.83;;;11.60;99.90;;;;;;5026891;28;20464;-69
2024/03/30 06:38:59;;;;;;;18.40;5.50;;;11.70;99.90;;;;;;5021087;28;20989;-69
2024/03/30 06:44:12;;;;;;;16.60;5.20;;;11.90;99.90;;;;;;5026246;28;20483;-69
2024/03/30 06:46:38;;;;;;;18.00;4.87;;;11.90;99.90;;;;;;5023998;28;20457;-69
2024/03/30 06:49:05;;;;;;;14.20;5.13;;;12.00;99.90;;;;;;5026101;28;20472;-69
2024/03/30 06:51:32;;;;;;;15.50;4.60;;;12.00;99.90;;;;;;5025550;28;20495;-69
2024/03/30 06:53:58;;;;;;;18.10;5.50;;;12.00;99.90;;;;;;5019509;28;20495;-67
2024/03/30 06:56:27;;;;;;;15.13;6.17;;;11.90;99.90;;;;;;5018006;28;20532;-69
2024/03/30 06:58:53;;;;;;;20.23;5.30;;;11.90;99.90;;;;;;5027479;28;21250;-71
2024/03/30 07:01:20;;;;;;;22.10;4.83;;;11.80;99.90;;;;;;5026737;28;20449;-71
2024/03/30 07:03:47;;;;;;;19.47;4.87;;;11.60;99.90;;;;;;5021857;28;20477;-70
2024/03/30 07:06:14;;;;;;;15.43;5.60;;;11.60;99.90;;;;;;5021202;28;20499;-69
2024/03/30 07:08:40;;;;;;;17.50;5.13;;;11.60;99.90;;;;;;5027289;28;20953;-69
2024/03/30 07:11:07;;;;;;;18.23;5.17;;;11.70;99.90;;;;;;5027130;28;20449;-69
2024/03/30 07:13:34;;;;;;;24.40;6.00;;;11.60;99.90;;;;;;5026355;28;21120;-68
2024/03/30 07:16:01;;;;;;;19.77;5.13;;;11.40;99.90;;;;;;5025971;28;20455;-68
2024/03/30 07:18:27;;;;;;;17.80;4.43;;;11.20;99.90;;;;;;5026812;28;20468;-69
2024/03/30 07:20:54;;;;;;;24.90;5.60;;;11.00;99.90;;;;;;5027098;28;20543;-68
2024/03/30 07:23:20;;;;;;;19.50;5.50;;;11.10;99.90;;;;;;5026412;28;20570;-69
2024/03/30 07:25:47;;;;;;;21.80;5.27;;;11.20;99.90;;;;;;5026449;28;20510;-70
2024/03/30 07:28:13;;;;;;;18.50;4.70;;;11.30;99.90;;;;;;5024470;28;20475;-69
2024/03/30 07:30:43;;;;;;;18.43;5.40;;;11.40;99.90;;;;;;5026420;28;20482;-69
2024/03/30 07:33:09;;;;;;;20.00;6.90;;;11.50;99.90;;;;;;5025690;28;20486;-69
2024/03/30 07:35:36;;;;;;;20.50;5.17;;;11.50;99.90;;;;;;5025612;28;20534;-70
2024/03/30 07:38:03;;;;;;;18.30;5.50;;;11.70;99.90;;;;;;5026360;28;20443;-69
2024/03/30 07:40:30;;;;;;;18.90;5.17;;;11.90;99.90;;;;;;5023389;28;21023;-69
2024/03/30 07:42:56;;;;;;;23.33;5.07;;;12.00;99.90;;;;;;5021208;28;20489;-70
2024/03/30 07:45:23;;;;;;;22.13;4.63;;;12.10;99.90;;;;;;5026236;28;20932;-70
2024/03/30 07:47:50;;;;;;;19.70;5.00;;;12.20;99.90;;;;;;5026177;28;20954;-71
2024/03/30 07:50:17;;;;;;;17.10;4.70;;;12.30;99.90;;;;;;5026137;28;20472;-70
2024/03/30 07:52:49;;;;;;;15.07;5.00;;;12.30;99.90;;;;;;5024446;28;20492;-70
2024/03/30 07:55:17;;;;;;;15.27;5.10;;;12.30;99.90;;;;;;5024473;28;20465;-70
2024/03/30 07:57:43;;;;;;;21.47;6.43;;;12.10;99.90;;;;;;5025996;28;20475;-69
2024/03/30 08:00:10;;;;;;;23.27;5.80;;;11.90;99.90;;;;;;5025713;28;20831;-70
2024/03/30 08:02:36;;;;;;;16.43;4.40;;;11.70;99.90;;;;;;5024286;28;21022;-70
2024/03/30 08:05:05;;;;;;;18.20;4.93;;;11.70;99.90;;;;;;5024385;28;20477;-70
2024/03/30 08:07:31;;;;;;;25.63;5.33;;;12.00;99.90;;;;;;5024941;28;20480;-70
2024/03/30 08:09:58;;;;;;;25.40;5.93;;;12.20;99.90;;;;;;5019578;28;20465;-70
2024/03/30 08:12:24;;;;;;;23.67;4.60;;;12.30;99.90;;;;;;5023464;28;20489;-70
2024/03/30 08:14:51;;;;;;;22.83;4.80;;;12.40;99.90;;;;;;5021749;28;20480;-70
2024/03/30 08:17:18;;;;;;;20.23;5.07;;;12.40;99.90;;;;;;5024569;28;20468;-70
2024/03/30 08:19:45;;;;;;;21.30;5.50;;;12.40;99.90;;;;;;5024290;28;20452;-70
2024/03/30 08:22:13;;;;;;;20.40;4.73;;;12.50;99.90;;;;;;5025353;28;20452;-70
2024/03/30 08:24:40;;;;;;;20.93;5.10;;;12.40;99.90;;;;;;5020600;28;20481;-71
2024/03/30 08:27:06;;;;;;;21.83;5.20;;;12.40;99.90;;;;;;5025347;28;21033;-70
2024/03/30 08:29:33;;;;;;;27.77;5.53;;;12.40;99.90;;;;;;5025195;28;20968;-70
2024/03/30 08:31:59;;;;;;;19.87;5.10;;;12.20;99.90;;;;;;5014209;28;20973;-70
2024/03/30 08:34:26;;;;;;;17.67;5.63;;;12.10;99.90;;;;;;5024075;28;20487;-70
2024/03/30 08:36:52;;;;;;;18.83;5.03;;;12.10;99.90;;;;;;5024734;28;20893;-70
2024/03/30 08:39:20;;;;;;;21.97;5.37;;;12.20;99.90;;;;;;5024900;28;20483;-70
2024/03/30 08:41:46;;;;;;;23.90;4.90;;;12.40;99.90;;;;;;5023378;28;21032;-69
2024/03/30 08:44:13;;;;;;;18.17;5.23;;;12.60;99.90;;;;;;5024584;28;20465;-70
2024/03/30 08:46:39;;;;;;;21.60;5.10;;;12.50;99.90;;;;;;5022351;28;20450;-70
2024/03/30 08:49:07;;;;;;;20.90;5.63;;;12.60;99.90;;;;;;5024374;28;20565;-70
2024/03/30 08:51:35;;;;;;;24.00;4.80;;;12.90;99.90;;;;;;5024043;28;20478;-70
2024/03/30 08:54:03;;;;;;;22.30;6.40;;;12.70;99.90;;;;;;5018777;28;20488;-71
2024/03/30 08:56:31;;;;;;;63.87;11.80;;;12.70;99.90;;;;;;5023555;28;20449;-68
2024/03/30 08:58:58;;;;;;;39.90;8.63;;;12.70;99.90;;;;;;5020443;28;20457;-70
2024/03/30 09:01:24;;;;;;;29.60;7.05;;;12.70;99.90;;;;;;5024840;28;20574;-70
2024/03/30 09:03:52;;;;;;;29.40;7.60;;;12.60;99.90;;;;;;5024842;28;20239;-71
2024/03/30 09:06:18;;;;;;;24.10;6.00;;;12.60;99.90;;;;;;5024190;28;20540;-70
2024/03/30 09:08:46;;;;;;;22.40;5.30;;;12.60;99.90;;;;;;5025467;28;20480;-71
2024/03/30 09:11:12;;;;;;;24.67;10.57;;;12.50;99.90;;;;;;5022519;28;20480;-70
2024/03/30 09:13:40;;;;;;;24.40;5.63;;;12.40;99.90;;;;;;5024174;28;20477;-71
2024/03/30 09:16:07;;;;;;;24.30;5.07;;;12.30;99.90;;;;;;5024222;28;21014;-70
2024/03/30 09:18:34;;;;;;;23.97;5.63;;;12.30;99.90;;;;;;5025181;28;21189;-71
2024/03/30 09:21:02;;;;;;;23.27;7.50;;;12.40;99.90;;;;;;5025619;28;20456;-71
2024/03/30 09:23:29;;;;;;;26.73;6.03;;;12.60;99.90;;;;;;5024495;28;20509;-71
2024/03/30 09:25:55;;;;;;;19.37;4.80;;;12.80;99.90;;;;;;5024633;28;20452;-71
2024/03/30 09:28:22;;;;;;;16.10;4.73;;;12.90;99.90;;;;;;5025416;28;21013;-70
2024/03/30 09:30:50;;;;;;;22.43;5.97;;;12.90;99.90;;;;;;5025373;28;21249;-71
2024/03/30 09:33:17;;;;;;;19.90;5.23;;;12.80;99.90;;;;;;5024021;28;20489;-69
2024/03/30 09:35:43;;;;;;;25.93;5.67;;;12.90;99.90;;;;;;5019361;28;20466;-70
2024/03/30 09:38:10;;;;;;;26.67;5.10;;;13.00;99.90;;;;;;5025287;28;20473;-71
2024/03/30 09:40:36;;;;;;;26.63;8.30;;;13.10;99.90;;;;;;5028583;28;20477;-76
2024/03/30 09:43:04;;;;;;;23.40;4.60;;;13.10;99.90;;;;;;5026100;28;20486;-71
2024/03/30 09:45:31;;;;;;;22.40;4.70;;;13.30;99.90;;;;;;5022951;28;20472;-69
2024/03/30 09:48:01;;;;;;;32.67;5.90;;;13.30;99.90;;;;;;5027542;28;20472;-69
2024/03/30 09:50:28;;;;;;;20.10;5.80;;;13.30;99.90;;;;;;5025276;28;20921;-70
2024/03/30 09:52:56;;;;;;;17.67;4.30;;;13.20;99.90;;;;;;5027264;28;20895;-71
2024/03/30 09:55:26;;;;;;;26.23;6.30;;;13.10;99.90;;;;;;5024905;28;20504;-70
2024/03/30 09:57:54;;;;;;;24.60;5.90;;;13.20;99.90;;;;;;5027634;28;20488;-70
2024/03/30 10:00:20;;;;;;;24.43;5.37;;;13.40;99.90;;;;;;5025175;28;21065;-72
2024/03/30 10:02:48;;;;;;;18.70;5.70;;;13.30;99.90;;;;;;5027653;28;20445;-71
2024/03/30 10:05:15;;;;;;;19.53;5.00;;;13.30;99.90;;;;;;5018447;28;20485;-72
2024/03/30 10:07:48;;;;;;;25.10;5.67;;;13.30;99.90;;;;;;5021752;28;20472;-70
2024/03/30 10:10:17;;;;;;;27.43;6.13;;;13.30;99.90;;;;;;5027188;28;20454;-73
2024/03/30 10:12:52;;;;;;;17.37;5.03;;;13.50;99.90;;;;;;5023266;28;20446;-70
2024/03/30 10:15:21;;;;;;;19.83;5.73;;;13.50;99.90;;;;;;5024688;28;20472;-72
2024/03/30 10:17:48;;;;;;;21.27;5.43;;;13.50;99.90;;;;;;5026559;28;20471;-70
2024/03/30 10:20:15;;;;;;;20.87;5.80;;;13.60;99.90;;;;;;5022018;28;20551;-70
2024/03/30 10:22:42;;;;;;;19.67;5.57;;;13.50;99.90;;;;;;5024519;28;21016;-69
2024/03/30 10:25:10;;;;;;;30.47;6.40;;;13.70;99.90;;;;;;5027827;28;20478;-70
2024/03/30 10:27:36;;;;;;;22.17;6.10;;;14.10;99.90;;;;;;5026803;28;20460;-70
2024/03/30 10:30:04;;;;;;;24.97;5.57;;;14.40;99.90;;;;;;5026992;28;20443;-70
2024/03/30 10:32:31;;;;;;;24.17;5.93;;;14.70;99.90;;;;;;5023183;28;20531;-71
2024/03/30 10:34:58;;;;;;;24.20;5.60;;;14.80;99.90;;;;;;5024090;28;20845;-71
2024/03/30 10:37:29;;;;;;;23.90;6.27;;;14.90;99.90;;;;;;5024307;28;20455;-70
2024/03/30 10:39:55;;;;;;;23.37;7.10;;;15.00;99.90;;;;;;5024952;28;20452;-70
2024/03/30 10:42:22;;;;;;;23.43;6.57;;;15.10;99.90;;;;;;5022398;28;20510;-70
2024/03/30 10:44:52;;;;;;;26.37;6.40;;;15.50;99.90;;;;;;5025764;28;20472;-70
2024/03/30 10:47:19;;;;;;;22.83;5.73;;;15.70;99.90;;;;;;5023179;28;20445;-71
2024/03/30 10:49:46;;;;;;;28.20;7.33;;;15.80;99.90;;;;;;5020951;28;20967;-71
2024/03/30 10:52:14;;;;;;;23.47;5.40;;;15.90;99.90;;;;;;5024920;28;20457;-70
2024/03/30 10:54:43;;;;;;;22.03;5.80;;;15.90;99.90;;;;;;5023125;28;20486;-69
2024/03/30 10:57:10;;;;;;;25.17;7.37;;;16.00;99.90;;;;;;5024703;28;20441;-72
2024/03/30 10:59:45;;;;;;;25.27;6.10;;;16.00;99.90;;;;;;5022695;28;20473;-71
2024/03/30 11:02:17;;;;;;;23.13;6.70;;;16.10;99.90;;;;;;5015659;28;20452;-72
2024/03/30 11:04:44;;;;;;;21.43;6.20;;;16.30;99.90;;;;;;5017467;28;20476;-71
2024/03/30 11:07:13;;;;;;;24.60;6.47;;;16.60;99.90;;;;;;5020100;28;20441;-69
2024/03/30 11:09:42;;;;;;;26.37;6.67;;;16.80;99.90;;;;;;5017023;28;20835;-72
2024/03/30 11:12:12;;;;;;;24.20;7.00;;;16.90;99.90;;;;;;5022709;28;20453;-70
2024/03/30 11:14:39;;;;;;;29.60;6.97;;;17.10;99.90;;;;;;5021481;28;20489;-70
2024/03/30 11:17:19;;;;;;;19.40;6.10;;;17.60;99.90;;;;;;5025227;28;20440;-70
2024/03/30 11:19:54;;;;;;;28.33;7.70;;;17.80;99.90;;;;;;5019780;28;20548;-70
2024/03/30 11:22:33;;;;;;;27.83;7.47;;;17.80;99.90;;;;;;5032299;28;20456;-70
2024/03/30 11:25:00;;;;;;;26.50;6.60;;;18.00;99.90;;;;;;5033949;28;20445;-70
2024/03/30 11:27:32;;;;;;;27.03;7.10;;;17.90;99.90;;;;;;5023696;28;20211;-71
2024/03/30 11:30:03;;;;;;;23.40;6.33;;;18.20;99.90;;;;;;5021268;28;20914;-70
2024/03/30 11:32:36;;;;;;;27.80;6.30;;;18.00;99.90;;;;;;5019086;28;20453;-70
2024/03/30 11:35:15;;;;;;;29.37;7.13;;;18.10;99.90;;;;;;5020869;28;20489;-71
2024/03/30 11:37:46;;;;;;;28.43;6.63;;;18.20;99.90;;;;;;5022529;28;20445;-70
2024/03/30 11:40:22;;;;;;;26.43;9.27;;;18.10;99.90;;;;;;5011530;28;20449;-69
2024/03/30 11:43:07;;;;;;;25.87;7.17;;;18.30;99.90;;;;;;5020808;28;20514;-68
2024/03/30 11:45:36;;;;;;;27.83;8.73;;;18.10;99.90;;;;;;5016149;28;20476;-70
2024/03/30 11:48:04;;;;;;;22.43;6.23;;;18.00;99.90;;;;;;5017663;28;20473;-70
2024/03/30 11:50:32;;;;;;;27.60;8.87;;;17.80;99.90;;;;;;5015701;28;20506;-70
2024/03/30 11:52:59;;;;;;;23.43;7.10;;;17.80;99.90;;;;;;5015735;28;21073;-69
2024/03/30 11:55:26;;;;;;;30.37;7.77;;;17.80;99.90;;;;;;5012557;28;20473;-70
2024/03/30 11:57:55;;;;;;;21.43;7.20;;;17.70;99.90;;;;;;5015741;28;20464;-69
2024/03/30 12:00:24;;;;;;;24.30;7.33;;;17.80;99.90;;;;;;5017621;28;20515;-70
2024/03/30 12:02:51;;;;;;;20.63;6.60;;;17.70;99.90;;;;;;5017476;28;20813;-70
2024/03/30 12:05:19;;;;;;;25.97;7.60;;;17.50;99.90;;;;;;5018528;28;20465;-70
2024/03/30 12:07:46;;;;;;;22.90;6.70;;;17.40;99.90;;;;;;5017110;28;20441;-70
2024/03/30 12:10:14;;;;;;;23.23;6.83;;;17.30;99.90;;;;;;5017847;28;20884;-70
2024/03/30 12:12:41;;;;;;;25.23;7.90;;;17.20;99.90;;;;;;5015724;28;20449;-69
2024/03/30 12:15:13;;;;;;;26.03;7.63;;;17.20;99.90;;;;;;5012714;28;20482;-71
2024/03/30 12:17:41;;;;;;;24.60;7.20;;;17.30;99.90;;;;;;5014640;28;20457;-71
2024/03/30 12:20:08;;;;;;;28.70;8.10;;;17.30;99.90;;;;;;5015598;28;20460;-70
2024/03/30 12:22:36;;;;;;;25.07;5.87;;;17.40;99.90;;;;;;5014578;28;20449;-69
2024/03/30 12:25:02;;;;;;;25.23;7.47;;;17.40;99.90;;;;;;5016785;28;20718;-74
2024/03/30 12:27:29;;;;;;;27.17;6.60;;;17.40;99.90;;;;;;5016591;28;20519;-71
2024/03/30 12:29:55;;;;;;;29.80;7.90;;;17.30;99.90;;;;;;5016843;28;21078;-72
2024/03/30 12:32:24;;;;;;;21.77;6.47;;;17.30;99.90;;;;;;5017363;28;20453;-71
2024/03/30 12:34:51;;;;;;;20.33;6.80;;;17.40;99.90;;;;;;5016323;28;20858;-72
2024/03/30 12:37:18;;;;;;;28.27;6.97;;;17.20;99.90;;;;;;5016231;28;20457;-71
2024/03/30 12:39:44;;;;;;;24.77;7.97;;;17.10;99.90;;;;;;5032720;28;20461;-72
2024/03/30 12:42:12;;;;;;;25.27;9.00;;;17.20;99.90;;;;;;5016402;28;20464;-71
2024/03/30 12:44:38;;;;;;;30.63;8.30;;;17.40;99.90;;;;;;5016786;28;20472;-71
2024/03/30 12:47:05;;;;;;;29.60;8.30;;;17.20;99.90;;;;;;5017067;28;20509;-71